Pagrindinis puslapis
METAR-TAF:

METAR-TAF

Oro uostai :

Estešundas-Frösön, Švedija

platuma: 63-11N, ilguma: 014-30E, Aukštis: 376 m

Dabartinis oras

Ataskaita buvo paskelbta 24 minutes, ne 13:50 UTC
Vėjas 9 kt iš Pietų/Pietryčių
Temperatūra 8°C
Drėgmė 66%
Slėgis 1026 hPa
Matomumas 10 km arba daugiau
Su prošvaistėmis ne aukštis 3900 ft

METAR: ESNZ 191350Z 15009KT 9999 BKN039 08/02 Q1026

Laikas: 16:14 (14:14 UTC)

Prognozė

Ataskaita buvo paskelbta 1 valandą ir 44 minutes, ne 12:30 UTC
Prognozė galioja nuo 19 metu 13 UTC su 19 metu 16 UTC
Vėjas 14 kt iš Pietryčių
Matomumas 10 km arba daugiau
Apsiniaukę ne aukštis 3000 ft

TAF: ESNZ 191230Z 1913/1916 14014KT 9999 OVC030

Orai ataskaitas ir orų prognozės (METAR, TAF).

turimą stotys yra geltonos ir raudonos taškus žemėlapyje.

Perkelti pele per norėdami pamatyti stoties vardą.

Tada spustelėkite, norėdami matyti oro stebėjimo ir prognozės.

Norėdami pakeisti žemėlapį: spustelėkite ant žalios mygtukų su juodo kryžiaus žemyn,; žalią mygtuką su brūkšneliu, jei norite nutolinti; arba žalių rodyklių gretimoms žemėlapius.


METAR-TAF: